Venetia — YQGV — position and weather

sailwx.info

Track history (hours):
 
Tides and Currents Weather Stations Pressure Air Temp Water Temp Dewpoint Dewpoint Depression Visibility Wind Speed Wind Dir Waves Ship Positions

Venetia

Last reported at 2017-Oct-19 05:17 UTC. Time now 2017-Oct-23 04:34 UTC.
Position N 44°10' E 028°39'.

Length 10 m; draft 1 m.

Type: Pilot. MMSI: 264900229.

Date/timePositionNaut miles runAvg speedWind from/ knotsBaromVisibWave heightAir tempDewpointWater temp
2017-Oct-19 05:17N 44°10' E 028°39'0 0.0
2017-Oct-19 05:00N 44°10' E 028°39'3 6.9
2017-Oct-19 04:30N 44°07' E 028°42'0 0.3
2017-Oct-19 04:00N 44°06' E 028°42'4 7.2
2017-Oct-19 03:30N 44°10' E 028°39'0 0.0
2017-Oct-19 03:00N 44°10' E 028°39'0 0.0
2017-Oct-19 02:30N 44°10' E 028°39'0 0.0
2017-Oct-19 02:00N 44°10' E 028°39'0 0.0
2017-Oct-19 01:31N 44°10' E 028°39'0 0.0
2017-Oct-19 01:00N 44°10' E 028°39'0 0.0
2017-Oct-19 00:30N 44°10' E 028°39'0 0.0
2017-Oct-19 00:00N 44°10' E 028°39'0 0.3
2017-Oct-18 23:30N 44°09' E 028°40'3 6.6
2017-Oct-18 23:00N 44°06' E 028°41'0 0.0
2017-Oct-18 22:30N 44°06' E 028°41'1 1.8
2017-Oct-18 22:00N 44°06' E 028°42'1 1.7
2017-Oct-18 21:30N 44°06' E 028°41'3 6.9
2017-Oct-18 21:00N 44°10' E 028°39'0 0.0
2017-Oct-18 20:30N 44°10' E 028°39'3 5.8
2017-Oct-18 20:01N 44°07' E 028°41'3 5.8
2017-Oct-18 19:30N 44°10' E 028°39'1 2.8
2017-Oct-18 19:00N 44°08' E 028°40'1 2.9
2017-Oct-18 18:30N 44°10' E 028°39'0 0.0
2017-Oct-18 18:00N 44°10' E 028°39'3 5.2
2017-Oct-18 17:30N 44°07' E 028°41'0 0.5
2017-Oct-18 17:00N 44°07' E 028°41'2 3.3
2017-Oct-18 16:31N 44°09' E 028°40'2 4.4
2017-Oct-18 16:00N 44°07' E 028°42'2 4.0
2017-Oct-18 15:30N 44°08' E 028°40'1 0.1
2017-Oct-17 22:08N 44°10' E 028°39'0 0.4
2017-Oct-17 22:00N 44°10' E 028°40'4 8.1
2017-Oct-17 21:30N 44°06' E 028°42'1 1.1
2017-Oct-17 21:00N 44°06' E 028°41'0 0.2
2017-Oct-17 20:30N 44°06' E 028°41'0 1.0
2017-Oct-17 20:00N 44°06' E 028°42'3 5.0
2017-Oct-17 19:30N 44°08' E 028°40'2 3.1
2017-Oct-17 19:00N 44°10' E 028°39'0 0.0
2017-Oct-17 18:30N 44°10' E 028°39'0 0.0
2017-Oct-17 18:00N 44°10' E 028°39'0 0.0
2017-Oct-17 17:30N 44°10' E 028°39'0 0.0
2017-Oct-17 17:00N 44°10' E 028°40'4 8.0
2017-Oct-17 16:31N 44°06' E 028°42'4 7.9
2017-Oct-17 16:00N 44°10' E 028°39'0 0.0
2017-Oct-17 05:03N 44°10' E 028°39'0 0.1
2017-Oct-17 05:00N 44°10' E 028°39'0 0.0
2017-Oct-17 04:30N 44°10' E 028°39'0 0.0
2017-Oct-17 04:00N 44°10' E 028°39'1 1.8
2017-Oct-17 03:30N 44°09' E 028°40'3 6.5
2017-Oct-17 03:00N 44°06' E 028°42'3 6.0
2017-Oct-17 02:30N 44°09' E 028°40'3 6.3
2017-Oct-17 02:01N 44°06' E 028°43'4 8.4
2017-Oct-17 01:30N 44°10' E 028°39'0 0.0
2017-Oct-17 01:00N 44°10' E 028°39'0 0.0
2017-Oct-17 00:30N 44°10' E 028°39'0 0.0
2017-Oct-17 00:00N 44°10' E 028°39'0 0.0
2017-Oct-16 23:30N 44°10' E 028°39'0 0.0
2017-Oct-16 23:00N 44°10' E 028°39'0 0.0
2017-Oct-16 22:30N 44°10' E 028°39'0 0.0
2017-Oct-16 22:00N 44°10' E 028°39'3 5.9
2017-Oct-16 21:30N 44°07' E 028°41'1 1.5
2017-Oct-16 21:00N 44°06' E 028°42'0 0.0
2017-Oct-16 20:30N 44°06' E 028°42'1 1.3
2017-Oct-16 20:00N 44°07' E 028°42'3 6.4
2017-Oct-16 19:30N 44°10' E 028°39'0 0.0
2017-Oct-16 19:01N 44°10' E 028°39'0 0.0
2017-Oct-16 18:31N 44°10' E 028°39'0 0.0
2017-Oct-16 18:00N 44°10' E 028°39'0 0.0
2017-Oct-16 17:31N 44°10' E 028°39'0 0.0
2017-Oct-16 17:01N 44°10' E 028°39'0 0.0
2017-Oct-16 16:30N 44°10' E 028°39'3 6.0
2017-Oct-16 16:00N 44°07' E 028°41'  
2017-Oct-12 08:05N 44°10' E 028°39'0 0.0
2017-Oct-12 08:00N 44°10' E 028°39'0 0.0
2017-Oct-12 07:30N 44°10' E 028°39'  
Track history (hours):
 
Tides and Currents Weather Stations Pressure Air Temp Water Temp Dewpoint Dewpoint Depression Visibility Wind Speed Wind Dir Waves Ship Positions

Venetia

Last reported at 2017-Oct-19 05:17 UTC. Time now 2017-Oct-23 04:34 UTC.
Position N 44°10' E 028°39'.

Length 10 m; draft 1 m.

Type: Pilot. MMSI: 264900229.

Date/timePositionNaut miles runAvg speedWind from/ knotsBaromVisibWave heightAir tempDewpointWater temp
2017-Oct-19 05:17N 44°10' E 028°39'0 0.0
2017-Oct-19 05:00N 44°10' E 028°39'3 6.9
2017-Oct-19 04:30N 44°07' E 028°42'0 0.3
2017-Oct-19 04:00N 44°06' E 028°42'4 7.2
2017-Oct-19 03:30N 44°10' E 028°39'0 0.0
2017-Oct-19 03:00N 44°10' E 028°39'0 0.0
2017-Oct-19 02:30N 44°10' E 028°39'0 0.0
2017-Oct-19 02:00N 44°10' E 028°39'0 0.0
2017-Oct-19 01:31N 44°10' E 028°39'0 0.0
2017-Oct-19 01:00N 44°10' E 028°39'0 0.0
2017-Oct-19 00:30N 44°10' E 028°39'0 0.0
2017-Oct-19 00:00N 44°10' E 028°39'0 0.3
2017-Oct-18 23:30N 44°09' E 028°40'3 6.6
2017-Oct-18 23:00N 44°06' E 028°41'0 0.0
2017-Oct-18 22:30N 44°06' E 028°41'1 1.8
2017-Oct-18 22:00N 44°06' E 028°42'1 1.7
2017-Oct-18 21:30N 44°06' E 028°41'3 6.9
2017-Oct-18 21:00N 44°10' E 028°39'0 0.0
2017-Oct-18 20:30N 44°10' E 028°39'3 5.8
2017-Oct-18 20:01N 44°07' E 028°41'3 5.8
2017-Oct-18 19:30N 44°10' E 028°39'1 2.8
2017-Oct-18 19:00N 44°08' E 028°40'1 2.9
2017-Oct-18 18:30N 44°10' E 028°39'0 0.0
2017-Oct-18 18:00N 44°10' E 028°39'3 5.2
2017-Oct-18 17:30N 44°07' E 028°41'0 0.5
2017-Oct-18 17:00N 44°07' E 028°41'2 3.3
2017-Oct-18 16:31N 44°09' E 028°40'2 4.4
2017-Oct-18 16:00N 44°07' E 028°42'2 4.0
2017-Oct-18 15:30N 44°08' E 028°40'1 0.1
2017-Oct-17 22:08N 44°10' E 028°39'0 0.4
2017-Oct-17 22:00N 44°10' E 028°40'4 8.1
2017-Oct-17 21:30N 44°06' E 028°42'1 1.1
2017-Oct-17 21:00N 44°06' E 028°41'0 0.2
2017-Oct-17 20:30N 44°06' E 028°41'0 1.0
2017-Oct-17 20:00N 44°06' E 028°42'3 5.0
2017-Oct-17 19:30N 44°08' E 028°40'2 3.1
2017-Oct-17 19:00N 44°10' E 028°39'0 0.0
2017-Oct-17 18:30N 44°10' E 028°39'0 0.0
2017-Oct-17 18:00N 44°10' E 028°39'0 0.0
2017-Oct-17 17:30N 44°10' E 028°39'0 0.0
2017-Oct-17 17:00N 44°10' E 028°40'4 8.0
2017-Oct-17 16:31N 44°06' E 028°42'4 7.9
2017-Oct-17 16:00N 44°10' E 028°39'0 0.0
2017-Oct-17 05:03N 44°10' E 028°39'0 0.1
2017-Oct-17 05:00N 44°10' E 028°39'0 0.0
2017-Oct-17 04:30N 44°10' E 028°39'0 0.0
2017-Oct-17 04:00N 44°10' E 028°39'1 1.8
2017-Oct-17 03:30N 44°09' E 028°40'3 6.5
2017-Oct-17 03:00N 44°06' E 028°42'3 6.0
2017-Oct-17 02:30N 44°09' E 028°40'3 6.3
2017-Oct-17 02:01N 44°06' E 028°43'4 8.4
2017-Oct-17 01:30N 44°10' E 028°39'0 0.0
2017-Oct-17 01:00N 44°10' E 028°39'0 0.0
2017-Oct-17 00:30N 44°10' E 028°39'0 0.0
2017-Oct-17 00:00N 44°10' E 028°39'0 0.0
2017-Oct-16 23:30N 44°10' E 028°39'0 0.0
2017-Oct-16 23:00N 44°10' E 028°39'0 0.0
2017-Oct-16 22:30N 44°10' E 028°39'0 0.0
2017-Oct-16 22:00N 44°10' E 028°39'3 5.9
2017-Oct-16 21:30N 44°07' E 028°41'1 1.5
2017-Oct-16 21:00N 44°06' E 028°42'0 0.0
2017-Oct-16 20:30N 44°06' E 028°42'1 1.3
2017-Oct-16 20:00N 44°07' E 028°42'3 6.4
2017-Oct-16 19:30N 44°10' E 028°39'0 0.0
2017-Oct-16 19:01N 44°10' E 028°39'0 0.0
2017-Oct-16 18:31N 44°10' E 028°39'0 0.0
2017-Oct-16 18:00N 44°10' E 028°39'0 0.0
2017-Oct-16 17:31N 44°10' E 028°39'0 0.0
2017-Oct-16 17:01N 44°10' E 028°39'0 0.0
2017-Oct-16 16:30N 44°10' E 028°39'3 6.0
2017-Oct-16 16:00N 44°07' E 028°41'  
2017-Oct-12 08:05N 44°10' E 028°39'0 0.0
2017-Oct-12 08:00N 44°10' E 028°39'0 0.0
2017-Oct-12 07:30N 44°10' E 028°39'  

Dump ship's entire track history